Data for 11/24/2013

Time Sea-Level Adjusted Pressure Absolute Pressure Temperature Relative Humidity Dew Point   
(mb) (inHg) (mb) (inHg) (C) (F) (%) (C) (F)
00:05 1024 30.24 854 25.22 -5.5 22.2 76 -9.1 15.6
00:10 1024 30.24 854 25.22 -5.7 21.7 76 -9.3 15.2
00:15 1024 30.24 854 25.22 -6 21.3 76 -9.5 15
00:20 1024 30.24 853 25.19 -6.1 21 78 -9.4 15.1
00:25 1024 30.24 853 25.19 -5.8 21.6 77 -9.2 15.4
00:30 1024 30.24 853 25.19 -5.7 21.8 77 -9.2 15.5
00:35 1024 30.24 853 25.19 -5.5 22.1 75 -9.3 15.2
00:40 1024 30.24 853 25.19 -6.1 21.1 79 -9.2 15.5
00:45 1024 30.24 853 25.19 -6.1 21 79 -9.2 15.5
00:50 1024 30.24 853 25.19 -6 21.3 78 -9.2 15.5
00:55 1024 30.24 853 25.19 -6 21.1 79 -9.2 15.5
01:00 1024 30.24 853 25.19 -6.3 20.7 79 -9.4 15.1
01:05 1024 30.24 853 25.19 -6.2 20.8 79 -9.3 15.2
01:10 1024 30.24 853 25.19 -6.4 20.5 80 -9.3 15.2
01:15 1024 30.24 853 25.19 -6.4 20.5 81 -9.1 15.7
01:20 1024 30.24 853 25.19 -5.7 21.7 77 -9.1 15.5
01:25 1024 30.24 853 25.19 -6.1 21 80 -9 15.8
01:30 1024 30.24 853 25.19 -6 21.1 80 -9 15.8
01:35 1024 30.24 853 25.19 -6.2 20.9 81 -9 15.8
01:40 1024 30.24 853 25.19 -6.2 20.9 78 -9.4 15.1
01:45 1024 30.24 853 25.19 -6.4 20.4 80 -9.4 15.1
01:50 1023 30.21 853 25.19 -6.8 19.8 81 -9.5 14.8
01:55 1023 30.21 852 25.16 -6.5 20.4 80 -9.3 15.2
02:00 1023 30.21 852 25.16 -5.5 22.1 75 -9.2 15.4
02:05 1023 30.21 852 25.16 -5.8 21.5 77 -9.2 15.4
02:10 1023 30.21 852 25.16 -6.4 20.5 79 -9.4 15
02:15 1023 30.21 852 25.16 -6.9 19.5 80 -9.8 14.3
02:20 1023 30.21 852 25.16 -7 19.4 80 -9.9 14.3
02:25 1023 30.21 852 25.16 -6.9 19.5 80 -9.9 14.3
02:30 1023 30.21 852 25.16 -6.8 19.7 80 -9.8 14.4
02:35 1023 30.21 852 25.16 -6.8 19.7 80 -9.7 14.6
02:40 1023 30.21 852 25.16 -7 19.5 80 -9.8 14.3
02:45 1023 30.21 852 25.16 -6.7 20 80 -9.6 14.6
02:50 1023 30.21 852 25.16 -6.4 20.4 79 -9.6 14.7
02:55 1023 30.21 852 25.16 -6.4 20.4 78 -9.7 14.6
03:00 1023 30.21 852 25.16 -6.5 20.2 78 -9.8 14.4
03:05 1023 30.21 852 25.16 -6.4 20.4 77 -9.8 14.4
03:10 1023 30.21 852 25.16 -6.3 20.7 77 -9.7 14.6
03:15 1023 30.21 852 25.16 -6.1 21 76 -9.7 14.6
03:20 1023 30.21 852 25.16 -6 21.1 76 -9.6 14.7
03:25 1023 30.21 852 25.16 -5.9 21.4 75 -9.6 14.7
03:30 1023 30.21 852 25.16 -5.7 21.8 74 -9.6 14.7
03:35 1023 30.21 852 25.16 -5.4 22.2 73 -9.6 14.8
03:40 1023 30.21 852 25.16 -5.2 22.6 72 -9.5 14.8
03:45 1023 30.21 852 25.16 -5.2 22.7 73 -9.4 15.2
03:50 1023 30.21 852 25.16 -5.2 22.6 73 -9.4 15.1
03:55 1023 30.21 852 25.16 -5.2 22.6 72 -9.5 15
04:00 1023 30.21 852 25.16 -5 22.9 71 -9.5 14.8
04:05 1023 30.21 852 25.16 -5.4 22.3 75 -9.2 15.5
04:10 1023 30.21 852 25.16 -5.5 22.2 74 -9.4 15.1
04:15 1023 30.21 852 25.16 -5.4 22.2 73 -9.5 14.8
04:20 1023 30.21 852 25.16 -5.5 22 74 -9.4 15
04:25 1023 30.21 852 25.16 -5.7 21.7 74 -9.7 14.6
04:30 1023 30.21 852 25.16 -6.1 21 76 -9.7 14.5
04:35 1023 30.21 852 25.16 -6.3 20.7 76 -9.9 14.2
04:40 1023 30.21 852 25.16 -6.6 20.1 77 -10.1 13.9
04:45 1023 30.21 852 25.16 -7 19.4 77 -10.3 13.4
04:50 1023 30.21 852 25.16 -7.4 18.8 81 -10.1 13.8
04:55 1023 30.21 852 25.16 -7.2 19 80 -10 13.9
05:00 1023 30.21 852 25.16 -6.8 19.8 79 -9.9 14.3
05:05 1023 30.21 852 25.16 -6.6 20.1 80 -9.5 14.8
05:10 1023 30.21 852 25.16 -6.6 20.2 79 -9.6 14.7
05:15 1023 30.21 852 25.16 -7.1 19.2 80 -10 14
05:20 1023 30.21 852 25.16 -7.6 18.3 81 -10.4 13.3
05:25 1023 30.21 852 25.16 -8.4 16.8 81 -11.1 12.1
05:30 1023 30.21 852 25.16 -8.9 15.9 86 -10.8 12.5
05:35 1023 30.21 852 25.16 -8.1 17.5 84 -10.3 13.4
05:40 1023 30.21 852 25.16 -7.7 18.1 83 -10.1 13.8
05:45 1022 30.18 852 25.16 -7.7 18.1 83 -10.1 13.9
05:50 1022 30.18 852 25.16 -7.7 18.1 81 -10.5 13.1
05:55 1022 30.18 852 25.16 -7.9 17.9 82 -10.5 13.1
06:00 1022 30.18 851 25.13 -7.8 17.9 81 -10.6 13
06:05 1022 30.18 851 25.13 -7.8 17.9 83 -10.3 13.5
06:10 1022 30.18 851 25.13 -7.5 18.5 80 -10.3 13.4
06:15 1022 30.18 851 25.13 -7.5 18.6 81 -10.2 13.7
06:20 1022 30.18 851 25.13 -7.2 19 80 -10.2 13.7
06:25 1022 30.18 851 25.13 -6.9 19.6 78 -10.1 13.9
06:30 1022 30.18 851 25.13 -6.7 20 78 -10 14
06:35 1022 30.18 851 25.13 -6.8 19.7 78 -10.1 13.9
06:40 1022 30.18 851 25.13 -7 19.3 78 -10.2 13.6
06:45 1022 30.18 851 25.13 -7 19.5 77 -10.3 13.5
06:50 1022 30.18 851 25.13 -7 19.4 78 -10.3 13.5
06:55 1022 30.18 851 25.13 -7.2 19 78 -10.4 13.3
07:00 1022 30.18 851 25.13 -7.3 19 79 -10.4 13.3
07:05 1022 30.18 851 25.13 -6.9 19.6 77 -10.2 13.6
07:10 1022 30.18 851 25.13 -6.4 20.4 75 -10.2 13.7
07:15 1022 30.18 851 25.13 -6 21.2 74 -10 14
07:20 1022 30.18 851 25.13 -5.7 21.7 72 -9.9 14.1
07:25 1022 30.18 851 25.13 -5.7 21.8 74 -9.7 14.6
07:30 1022 30.18 851 25.13 -5.4 22.4 71 -9.9 14.2
07:35 1022 30.18 851 25.13 -5.2 22.7 70 -9.9 14.3
07:40 1022 30.18 851 25.13 -5 23.1 70 -9.6 14.7
07:45 1022 30.18 851 25.13 -5.6 22 73 -9.7 14.5
07:50 1022 30.18 851 25.13 -6.6 20.2 76 -10.1 13.9
07:55 1022 30.18 851 25.13 -7.2 19 78 -10.4 13.2
08:00 1022 30.18 851 25.13 -7.1 19.2 78 -10.4 13.3
08:05 1022 30.18 851 25.13 -7.2 19.1 77 -10.5 13.1
08:10 1022 30.18 851 25.13 -7.1 19.3 77 -10.5 13.1
08:15 1021 30.15 851 25.13 -7.1 19.3 77 -10.5 13.1
08:20 1022 30.18 851 25.13 -6.8 19.7 76 -10.4 13.3
08:25 1021 30.15 851 25.13 -6.6 20.2 75 -10.3 13.5
08:30 1021 30.15 851 25.13 -6.3 20.6 74 -10.2 13.6
08:35 1022 30.18 851 25.13 -6.2 20.8 73 -10.3 13.4
08:40 1022 30.18 851 25.13 -6.1 21.1 72 -10.3 13.4
08:45 1022 30.18 851 25.13 -5.9 21.5 72 -10.2 13.7
08:50 1022 30.18 851 25.13 -5.7 21.8 71 -10.1 13.7
08:55 1022 30.18 851 25.13 -5.7 21.8 73 -9.8 14.3
09:00 1022 30.18 851 25.13 -5.5 22.2 70 -10.1 13.8
09:05 1022 30.18 851 25.13 -5.2 22.7 70 -9.8 14.3
09:10 1022 30.18 851 25.13 -4.9 23.2 69 -9.7 14.6
09:15 1022 30.18 851 25.13 -5.2 22.6 72 -9.5 14.9
09:20 1022 30.18 851 25.13 -5.5 22 72 -9.7 14.5
09:25 1022 30.18 851 25.13 -5.4 22.2 71 -10 14.1
09:30 1022 30.18 851 25.13 -4.5 23.9 66 -9.9 14.2
09:35 1022 30.18 851 25.13 -4.1 24.7 66 -9.6 14.8
09:40 1022 30.18 851 25.13 -4.5 23.9 70 -9.2 15.4
09:45 1022 30.18 851 25.13 -5.5 22.1 73 -9.5 14.8
09:50 1022 30.18 851 25.13 -5.8 21.5 74 -9.8 14.4
09:55 1022 30.18 852 25.16 -5.9 21.4 72 -10.1 13.9
10:00 1022 30.18 852 25.16 -5.8 21.6 72 -10 13.9
10:05 1022 30.18 852 25.16 -5.9 21.5 72 -10.1 13.8
10:10 1022 30.18 852 25.16 -5.9 21.4 72 -10.1 13.9
10:15 1022 30.18 852 25.16 -5.8 21.5 73 -10 14
10:20 1022 30.18 852 25.16 -5.4 22.2 70 -10 13.9
10:25 1022 30.18 852 25.16 -4.6 23.6 68 -9.6 14.7
10:30 1022 30.18 851 25.13 -4.5 23.9 67 -9.7 14.5
10:35 1022 30.18 851 25.13 -4.4 24 66 -9.8 14.3
10:40 1022 30.18 851 25.13 -3.6 25.4 65 -9.3 15.2
10:45 1022 30.18 851 25.13 -2.9 26.8 63 -9 15.8
10:50 1022 30.18 851 25.13 -3.1 26.3 63 -9.3 15.3
10:55 1022 30.18 851 25.13 -2.8 26.9 63 -9 15.9
11:00 1022 30.18 852 25.16 -2.8 26.9 65 -8.5 16.6
11:05 1022 30.18 851 25.13 -2.6 27.4 63 -8.8 16.2
11:10 1022 30.18 851 25.13 -2 28.3 61 -8.5 16.7
11:15 1022 30.18 851 25.13 -1.2 29.8 59 -8.2 17.3
11:20 1022 30.18 851 25.13 -0.5 31.2 56 -8.2 17.3
11:25 1022 30.18 851 25.13 -0.2 31.6 56 -8.1 17.5
11:30 1022 30.18 851 25.13 -0.3 31.4 56 -8.1 17.3
11:35 1022 30.18 851 25.13 -0.7 30.7 58 -8 17.5
11:40 1022 30.18 851 25.13 -0.6 31 58 -7.9 17.9
11:45 1022 30.18 851 25.13 -0.4 31.3 56 -8.1 17.4
11:50 1022 30.18 851 25.13 -0 31.9 52 -8.6 16.5
11:55 1022 30.18 851 25.13 -0.1 31.9 54 -8.4 17
12:00 1022 30.18 851 25.13 -0 32 54 -8.3 17.1
12:05 1022 30.18 851 25.13 0.3 32.5 54 -8 17.6
12:10 1022 30.18 851 25.13 0.4 32.7 52 -8.3 17.1
12:15 1022 30.18 851 25.13 0.6 33 53 -7.9 17.8
12:20 1022 30.18 851 25.13 0.6 33.1 52 -8.2 17.2
12:25 1022 30.18 851 25.13 0.7 33.3 49 -8.8 16.1
12:30 1021 30.15 851 25.13 1.2 34.1 48 -8.7 16.4
12:35 1021 30.15 851 25.13 1.6 34.9 48 -8.2 17.2
12:40 1021 30.15 851 25.13 2.1 35.8 47 -8.1 17.4
12:45 1022 30.18 851 25.13 2.6 36.6 44 -8.6 16.5
12:50 1021 30.15 851 25.13 2.2 35.9 44 -8.9 15.9
12:55 1021 30.15 851 25.13 2.4 36.3 44 -8.8 16.2
13:00 1021 30.15 851 25.13 2 35.6 47 -8 17.6
13:05 1022 30.18 851 25.13 1.5 34.7 51 -7.7 18.2
13:10 1022 30.18 851 25.13 1.4 34.5 49 -8.2 17.3
13:15 1022 30.18 851 25.13 1.2 34.1 50 -8.1 17.4
13:20 1022 30.18 851 25.13 1 33.8 51 -8 17.6
13:25 1022 30.18 851 25.13 0.9 33.7 52 -7.9 17.7
13:30 1021 30.15 851 25.13 0.9 33.6 52 -7.8 17.9
13:35 1021 30.15 851 25.13 0.8 33.4 51 -8.2 17.2
13:40 1021 30.15 851 25.13 1.4 34.6 49 -8.1 17.4
13:45 1021 30.15 851 25.13 1.1 33.9 49 -8.5 16.7
13:50 1021 30.15 850 25.1 0.4 32.7 51 -8.7 16.4
13:55 1021 30.15 850 25.1 0.1 32.1 55 -8 17.6
14:00 1021 30.15 850 25.1 0.1 32.1 51 -8.8 16.2
14:05 1021 30.15 850 25.1 0.9 33.6 50 -8.5 16.6
14:10 1021 30.15 850 25.1 1.1 33.9 49 -8.4 16.8
14:15 1021 30.15 850 25.1 1 33.8 51 -8.1 17.5
14:20 1021 30.15 850 25.1 0.8 33.5 53 -7.8 18
14:25 1021 30.15 850 25.1 1.3 34.3 54 -7 19.3
14:30 1021 30.15 850 25.1 1.3 34.4 55 -6.7 20
14:35 1021 30.15 850 25.1 0.9 33.7 55 -7 19.3
14:40 1021 30.15 850 25.1 1.1 34 53 -7.3 18.8
14:45 1021 30.15 850 25.1 1.5 34.7 56 -6.4 20.5
14:50 1021 30.15 850 25.1 1.7 35 55 -6.5 20.3
14:55 1021 30.15 850 25.1 1.1 34 58 -6.2 20.9
15:00 1021 30.15 850 25.1 1.4 34.5 56 -6.3 20.6
15:05 1021 30.15 850 25.1 1.7 35.1 54 -6.5 20.3
15:10 1021 30.15 850 25.1 2.2 35.9 53 -6.5 20.2
15:15 1021 30.15 850 25.1 2 35.6 54 -6.3 20.7
15:20 1021 30.15 850 25.1 1.8 35.2 53 -6.9 19.6
15:25 1021 30.15 850 25.1 1.5 34.7 54 -6.7 19.9
15:30 1021 30.15 850 25.1 1.7 35.1 52 -7 19.4
15:35 1021 30.15 850 25.1 1.9 35.5 52 -7 19.4
15:40 1021 30.15 850 25.1 2 35.7 52 -6.9 19.6
15:45 1021 30.15 850 25.1 2.1 35.8 47 -8 17.6
15:50 1021 30.15 850 25.1 2.3 36.1 48 -7.7 18.1
15:55 1021 30.15 850 25.1 2.3 36.2 49 -7.4 18.7
16:00 1021 30.15 850 25.1 2.4 36.3 48 -7.5 18.6
16:05 1021 30.15 850 25.1 2.2 36 49 -7.4 18.7
16:10 1021 30.15 850 25.1 2.4 36.3 49 -7.2 19
16:15 1021 30.15 850 25.1 2.7 36.8 49 -7 19.5
16:20 1021 30.15 850 25.1 3 37.4 47 -7.1 19.2
16:25 1021 30.15 850 25.1 2.7 36.9 49 -6.8 19.7
16:30 1021 30.15 850 25.1 2.4 36.3 51 -6.7 19.9
16:35 1021 30.15 850 25.1 1.6 35 55 -6.5 20.4
16:40 1021 30.15 850 25.1 1.3 34.3 55 -6.9 19.6
16:45 1021 30.15 850 25.1 1.6 34.9 52 -7.3 18.9
16:50 1021 30.15 850 25.1 1.9 35.5 51 -7.1 19.3
16:55 1021 30.15 850 25.1 1.9 35.5 52 -7 19.4
17:00 1021 30.15 850 25.1 2.2 35.9 50 -7.1 19.2
17:05 1021 30.15 850 25.1 2.4 36.3 51 -6.7 20
17:10 1021 30.15 850 25.1 2.1 35.8 53 -6.5 20.3
17:15 1021 30.15 850 25.1 1.6 35 55 -6.6 20.2
17:20 1021 30.15 850 25.1 1.1 34 58 -6.3 20.6
17:25 1021 30.15 850 25.1 0.9 33.7 58 -6.4 20.4
17:30 1021 30.15 850 25.1 1 33.9 57 -6.5 20.4
17:35 1021 30.15 850 25.1 0.6 33.1 60 -6.2 20.8
17:40 1021 30.15 850 25.1 -0 32 62 -6.4 20.4
17:45 1021 30.15 850 25.1 -0.5 31.2 65 -6.2 20.8
17:50 1021 30.15 851 25.13 -0.6 30.8 68 -5.8 21.6
17:55 1021 30.15 851 25.13 -0.7 30.7 68 -5.8 21.5
18:00 1021 30.15 850 25.1 -0.6 30.8 68 -5.8 21.5
18:05 1021 30.15 851 25.13 -0.4 31.2 69 -5.5 22.1
18:10 1021 30.15 851 25.13 -0.4 31.2 69 -5.5 22.1
18:15 1021 30.15 851 25.13 -0.4 31.2 67 -5.8 21.6
18:20 1021 30.15 851 25.13 -0.5 31 68 -5.6 21.8
18:25 1021 30.15 850 25.1 -0.7 30.7 68 -6 21.3
18:30 1021 30.15 851 25.13 -1 30.2 72 -5.5 22.1
18:35 1021 30.15 851 25.13 -1.3 29.6 72 -5.7 21.8
18:40 1021 30.15 851 25.13 -1.4 29.5 73 -5.6 22
18:45 1021 30.15 851 25.13 -1.4 29.4 71 -6 21.2
18:50 1022 30.18 851 25.13 -1.4 29.5 70 -6.2 20.8
18:55 1022 30.18 851 25.13 -1.4 29.4 75 -5.4 22.3
19:00 1022 30.18 851 25.13 -1.9 28.7 77 -5.3 22.5
19:05 1022 30.18 851 25.13 -2.1 28.2 76 -5.8 21.6
19:10 1022 30.18 851 25.13 -1.9 28.6 74 -5.9 21.5
19:15 1022 30.18 851 25.13 -1.8 28.7 75 -5.6 21.9
19:20 1022 30.18 851 25.13 -2 28.4 77 -5.5 22.1
19:25 1022 30.18 851 25.13 -2.1 28.2 77 -5.6 21.9
19:30 1022 30.18 851 25.13 -2 28.4 74 -6 21.2
19:35 1022 30.18 851 25.13 -1.9 28.7 72 -6.2 20.8
19:40 1022 30.18 851 25.13 -1.7 28.9 72 -6.1 21
19:45 1022 30.18 851 25.13 -1.6 29 73 -5.9 21.4
19:50 1022 30.18 851 25.13 -1.6 29.2 73 -5.8 21.6
19:55 1022 30.18 851 25.13 -1.4 29.6 71 -6 21.1
20:00 1022 30.18 851 25.13 -1.1 30.1 70 -5.9 21.4
20:05 1022 30.18 851 25.13 -1.1 30 71 -5.7 21.8
20:10 1022 30.18 851 25.13 -1.2 29.9 70 -5.9 21.4
20:15 1022 30.18 851 25.13 -0.9 30.4 68 -6 21.2
20:20 1022 30.18 851 25.13 -0.7 30.7 68 -5.9 21.3
20:25 1022 30.18 851 25.13 -0.5 31 68 -5.7 21.8
20:30 1022 30.18 851 25.13 -0.5 31.1 68 -5.6 21.9
20:35 1022 30.18 851 25.13 -0.6 31 70 -5.3 22.4
20:40 1022 30.18 851 25.13 -0.7 30.7 75 -4.7 23.5
20:45 1022 30.18 851 25.13 -0.9 30.4 73 -5.2 22.6
20:50 1022 30.18 851 25.13 -0.8 30.6 73 -5.1 22.9
20:55 1022 30.18 851 25.13 -0.8 30.5 70 -5.6 22
21:00 1022 30.18 851 25.13 -0.8 30.6 71 -5.3 22.4
21:05 1022 30.18 851 25.13 -0.9 30.4 73 -5.1 22.8
21:10 1022 30.18 852 25.16 -1 30.2 72 -5.4 22.4
21:15 1022 30.18 852 25.16 -0.8 30.6 69 -5.8 21.5
21:20 1022 30.18 852 25.16 -0.6 31 70 -5.4 22.3
21:25 1022 30.18 852 25.16 -0.5 31.1 70 -5.3 22.5
21:30 1022 30.18 852 25.16 -0.3 31.4 71 -4.9 23.2
21:35 1022 30.18 852 25.16 -0.4 31.4 72 -4.7 23.5
21:40 1022 30.18 852 25.16 -0.4 31.4 70 -5.2 22.6
21:45 1022 30.18 852 25.16 -0.6 31 72 -5.1 22.9
21:50 1023 30.21 852 25.16 -0.5 31.1 68 -5.8 21.6
21:55 1022 30.18 852 25.16 -0.1 31.8 73 -4.4 24.2
22:00 1022 30.18 852 25.16 -0.1 31.7 75 -4.1 24.7
22:05 1022 30.18 852 25.16 -0.3 31.5 77 -3.9 24.9
22:10 1023 30.21 852 25.16 -0.1 31.9 68 -5.3 22.5
22:15 1023 30.21 852 25.16 0.4 32.7 67 -5 22.9
22:20 1023 30.21 852 25.16 0.3 32.6 71 -4.4 24.1
22:25 1023 30.21 852 25.16 0 32.1 71 -4.5 23.8
22:30 1023 30.21 852 25.16 0 32 70 -4.8 23.4
22:35 1023 30.21 852 25.16 0.1 32.2 71 -4.6 23.6
22:40 1023 30.21 852 25.16 0.2 32.3 72 -4.3 24.3
22:45 1023 30.21 852 25.16 -0.1 31.9 73 -4.3 24.2
22:50 1023 30.21 852 25.16 -0.2 31.6 74 -4.4 24.2
22:55 1023 30.21 852 25.16 -0.1 31.8 73 -4.5 24
23:00 1023 30.21 852 25.16 0 32 72 -4.4 24.1
23:05 1023 30.21 852 25.16 0.2 32.3 73 -4.1 24.7
23:10 1023 30.21 852 25.16 0.1 32.3 72 -4.3 24.3
23:15 1023 30.21 852 25.16 0.3 32.6 68 -4.9 23.2
23:20 1023 30.21 852 25.16 0.7 33.2 67 -4.8 23.4
23:25 1023 30.21 852 25.16 0.8 33.5 72 -3.6 25.5
23:30 1023 30.21 852 25.16 1.1 34 70 -3.8 25.2
23:35 1023 30.21 852 25.16 1.4 34.5 70 -3.6 25.5
23:40 1023 30.21 852 25.16 1.6 34.8 69 -3.5 25.6
23:45 1023 30.21 852 25.16 1.5 34.7 69 -3.6 25.6
23:50 1023 30.21 852 25.16 1.6 34.8 72 -3 26.7
23:55 1023 30.21 852 25.16 0.8 33.4 75 -3.1 26.5
24:00 1023 30.21 852 25.16 0.2 32.3 73 -4.2 24.4